createdAt,value
2018-09-26T00:01:53.071Z,2.70
2018-09-26T00:04:21.887Z,2.57
2018-09-26T00:06:50.690Z,2.40
2018-09-26T00:09:19.276Z,2.60
2018-09-26T00:11:46.781Z,2.70
2018-09-26T00:14:14.243Z,2.60
2018-09-26T00:16:41.695Z,2.43
2018-09-26T00:19:09.155Z,1.97
2018-09-26T00:21:36.615Z,2.73
2018-09-26T00:24:04.095Z,2.27
2018-09-26T00:26:31.584Z,2.70
2018-09-26T00:28:59.119Z,2.27
2018-09-26T00:31:26.583Z,2.17
2018-09-26T00:33:54.042Z,2.47
2018-09-26T00:36:21.560Z,2.37
2018-09-26T00:38:48.952Z,2.33
2018-09-26T00:41:16.637Z,2.67
2018-09-26T00:43:44.087Z,2.30
2018-09-26T00:46:11.561Z,2.13
2018-09-26T00:48:39.171Z,2.53
2018-09-26T00:51:07.411Z,1.97
2018-09-26T00:53:34.863Z,2.17
2018-09-26T00:56:02.531Z,2.20
2018-09-26T00:58:30.092Z,1.80
2018-09-26T01:00:57.562Z,2.20
2018-09-26T01:03:25.021Z,1.80
2018-09-26T01:05:52.485Z,2.20
2018-09-26T01:08:19.932Z,2.40
2018-09-26T01:10:47.408Z,2.13
2018-09-26T01:13:14.979Z,1.90
2018-09-26T01:15:42.434Z,2.27
2018-09-26T01:18:09.894Z,1.97
2018-09-26T01:20:37.352Z,2.30
2018-09-26T01:23:06.043Z,2.73
2018-09-26T01:25:33.602Z,2.90
2018-09-26T01:28:01.185Z,2.20
2018-09-26T01:30:28.843Z,2.57
2018-09-26T01:32:56.297Z,2.63
2018-09-26T01:35:23.771Z,2.47
2018-09-26T01:37:51.341Z,2.13
2018-09-26T01:40:18.888Z,2.30
2018-09-26T01:42:46.351Z,2.33
2018-09-26T01:45:13.800Z,2.57
2018-09-26T01:47:41.415Z,2.17
2018-09-26T01:50:09.637Z,2.50
2018-09-26T01:52:37.118Z,2.57
2018-09-26T01:55:04.786Z,2.50
2018-09-26T01:57:32.237Z,3.23
2018-09-26T01:59:59.686Z,3.07
2018-09-26T02:02:27.147Z,3.03
2018-09-26T02:04:54.639Z,2.77
2018-09-26T02:07:22.199Z,2.97
2018-09-26T02:09:49.767Z,3.10
2018-09-26T02:12:17.228Z,3.33
2018-09-26T02:14:44.788Z,2.57
2018-09-26T02:17:12.240Z,2.50
2018-09-26T02:19:39.702Z,3.00
2018-09-26T02:22:07.164Z,1.87
2018-09-26T02:24:34.624Z,3.27
2018-09-26T02:27:02.088Z,2.90
2018-09-26T02:29:29.541Z,2.27
2018-09-26T02:31:56.990Z,3.27
2018-09-26T02:34:24.862Z,3.20
2018-09-26T02:36:52.315Z,2.73
2018-09-26T02:39:19.777Z,3.27
2018-09-26T02:41:47.232Z,2.87
2018-09-26T02:44:14.681Z,2.83
2018-09-26T02:46:42.912Z,3.10
2018-09-26T02:49:10.475Z,3.20
2018-09-26T02:51:38.152Z,3.37
2018-09-26T02:54:05.609Z,3.30
2018-09-26T02:56:33.085Z,2.63
2018-09-26T02:59:00.532Z,3.27
2018-09-26T03:01:27.988Z,2.67
2018-09-26T03:03:55.456Z,2.93
2018-09-26T03:06:22.928Z,3.23
2018-09-26T03:08:50.388Z,3.00
2018-09-26T03:11:17.848Z,2.77
2018-09-26T03:13:45.291Z,3.40
2018-09-26T03:16:12.775Z,2.70
2018-09-26T03:18:40.211Z,2.43
2018-09-26T03:21:07.681Z,2.80
2018-09-26T03:23:35.150Z,2.47
2018-09-26T03:26:02.616Z,2.60
2018-09-26T03:28:30.069Z,2.37
2018-09-26T03:30:57.548Z,3.27
2018-09-26T03:33:25.002Z,2.63
2018-09-26T03:35:52.456Z,2.53
2018-09-26T03:38:19.916Z,3.60
2018-09-26T03:40:47.376Z,2.83
2018-09-26T03:43:14.827Z,3.17
2018-09-26T03:45:42.312Z,3.07
2018-09-26T03:48:09.773Z,3.13
2018-09-26T03:50:37.232Z,2.70
2018-09-26T03:53:04.906Z,2.90
2018-09-26T03:55:32.478Z,2.60
2018-09-26T03:57:59.912Z,3.40
2018-09-26T04:00:27.604Z,3.30
2018-09-26T04:02:55.058Z,2.17
2018-09-26T04:05:22.509Z,4.13
2018-09-26T04:07:49.972Z,2.70
2018-09-26T04:10:17.426Z,3.23
2018-09-26T04:12:44.990Z,3.00
2018-09-26T04:15:12.559Z,3.23
2018-09-26T04:17:40.011Z,3.43
2018-09-26T04:20:07.459Z,3.27
2018-09-26T04:22:35.160Z,3.57
2018-09-26T04:25:02.603Z,3.40
2018-09-26T04:27:30.156Z,3.50
2018-09-26T04:29:57.658Z,3.57
2018-09-26T04:32:25.227Z,3.30
2018-09-26T04:34:52.766Z,3.23
2018-09-26T04:37:20.235Z,4.67
2018-09-26T04:39:47.675Z,2.47
2018-09-26T04:42:15.143Z,2.93
2018-09-26T04:44:42.591Z,3.27
2018-09-26T04:47:10.033Z,3.33
2018-09-26T04:49:37.542Z,3.63
2018-09-26T04:52:05.001Z,2.90
2018-09-26T04:54:32.469Z,3.40
2018-09-26T04:56:59.918Z,3.77
2018-09-26T04:59:27.404Z,3.70
2018-09-26T05:01:54.919Z,3.80
2018-09-26T05:04:22.421Z,3.00
2018-09-26T05:06:49.880Z,3.30
2018-09-26T05:09:17.444Z,3.10
2018-09-26T05:11:44.899Z,4.23
2018-09-26T05:14:12.378Z,4.10
2018-09-26T05:16:39.827Z,3.10
2018-09-26T05:19:07.293Z,4.60
2018-09-26T05:21:34.955Z,3.73
2018-09-26T05:24:02.412Z,4.13
2018-09-26T05:26:29.888Z,3.13
2018-09-26T05:28:57.509Z,3.37
2018-09-26T05:31:24.960Z,3.60
2018-09-26T05:33:52.408Z,3.57
2018-09-26T05:36:20.637Z,3.43
2018-09-26T05:38:48.102Z,3.77
2018-09-26T05:41:15.570Z,3.50
2018-09-26T05:43:43.036Z,3.97
2018-09-26T05:46:10.488Z,3.83
2018-09-26T05:48:37.948Z,3.50
2018-09-26T05:51:05.405Z,4.53
2018-09-26T05:53:32.931Z,3.63
2018-09-26T05:56:00.362Z,4.40
2018-09-26T05:58:27.807Z,4.50
2018-09-26T06:00:55.259Z,4.87
2018-09-26T06:03:23.035Z,4.13
2018-09-26T06:05:50.494Z,3.60
2018-09-26T06:08:17.971Z,3.07
2018-09-26T06:10:45.429Z,3.57
2018-09-26T06:13:12.997Z,4.17
2018-09-26T06:15:40.556Z,4.30
2018-09-26T06:18:08.031Z,4.23
2018-09-26T06:20:36.251Z,3.67
2018-09-26T06:23:03.754Z,4.10
2018-09-26T06:25:31.216Z,4.27
2018-09-26T06:27:58.679Z,4.10
2018-09-26T06:30:26.150Z,4.90
2018-09-26T06:32:53.724Z,3.70
2018-09-26T06:35:21.955Z,3.77
2018-09-26T06:37:49.444Z,4.77
2018-09-26T06:40:16.955Z,3.93
2018-09-26T06:42:44.434Z,4.07
2018-09-26T06:45:11.876Z,4.57
2018-09-26T06:47:40.100Z,4.43
2018-09-26T06:50:07.548Z,4.47
2018-09-26T06:52:35.238Z,4.67
2018-09-26T06:55:02.715Z,4.83
2018-09-26T06:57:30.154Z,4.30
2018-09-26T06:59:58.350Z,4.50
2018-09-26T07:02:25.787Z,4.77
2018-09-26T07:04:53.231Z,5.13
2018-09-26T07:07:20.750Z,5.80
2018-09-26T07:09:48.198Z,4.83
2018-09-26T07:12:15.794Z,4.90
2018-09-26T07:14:43.326Z,5.97
2018-09-26T07:17:10.783Z,5.00
2018-09-26T07:19:39.594Z,5.17
2018-09-26T07:22:07.240Z,4.70
2018-09-26T07:24:34.696Z,4.33
2018-09-26T07:27:02.159Z,3.80
2018-09-26T07:29:29.728Z,4.97
2018-09-26T07:31:57.172Z,5.20
2018-09-26T07:34:26.454Z,4.90
2018-09-26T07:36:53.868Z,5.47
2018-09-26T07:39:21.325Z,4.70
2018-09-26T07:41:48.984Z,4.70
2018-09-26T07:44:16.552Z,5.47
2018-09-26T07:46:44.109Z,5.80
2018-09-26T07:49:11.591Z,6.20
2018-09-26T07:51:39.042Z,5.20
2018-09-26T07:54:06.499Z,5.23
2018-09-26T07:56:33.961Z,5.20
2018-09-26T07:59:01.529Z,6.40
2018-09-26T08:01:29.046Z,5.43
2018-09-26T08:03:56.555Z,5.40
2018-09-26T08:06:24.009Z,5.67
2018-09-26T08:08:51.488Z,5.80
2018-09-26T08:11:19.014Z,6.30
2018-09-26T08:13:46.517Z,5.93
2018-09-26T08:16:13.958Z,5.93
2018-09-26T08:18:41.646Z,6.50
2018-09-26T08:21:09.010Z,6.20
2018-09-26T08:23:37.269Z,7.43
2018-09-26T08:26:04.729Z,6.27
2018-09-26T08:28:32.207Z,6.60
2018-09-26T08:31:01.211Z,6.63
2018-09-26T08:33:28.663Z,5.80
2018-09-26T08:35:56.124Z,6.10
2018-09-26T08:38:23.596Z,6.70
2018-09-26T08:40:51.140Z,6.20
2018-09-26T08:43:18.605Z,6.47
2018-09-26T08:45:46.188Z,6.83
2018-09-26T08:48:13.729Z,6.20
2018-09-26T08:50:41.294Z,6.80
2018-09-26T08:53:08.756Z,6.43
2018-09-26T08:55:36.217Z,7.33
2018-09-26T08:58:03.679Z,6.10
2018-09-26T09:00:31.163Z,6.57
2018-09-26T09:02:58.632Z,7.13
2018-09-26T09:05:26.108Z,5.90
2018-09-26T09:07:54.463Z,6.63
2018-09-26T09:10:23.424Z,5.57
2018-09-26T09:12:50.904Z,6.37
2018-09-26T09:15:18.471Z,6.30
2018-09-26T09:17:45.983Z,5.73
2018-09-26T09:20:13.583Z,5.97
2018-09-26T09:22:41.060Z,5.37
2018-09-26T09:25:08.630Z,5.00
2018-09-26T09:27:36.141Z,4.57
2018-09-26T09:30:03.665Z,4.73
2018-09-26T09:32:31.120Z,4.37
2018-09-26T09:34:58.789Z,4.17
2018-09-26T09:37:26.248Z,4.07
2018-09-26T09:39:53.821Z,3.70
2018-09-26T09:42:22.051Z,3.73
2018-09-26T09:44:49.508Z,3.80
2018-09-26T09:47:16.958Z,4.33
2018-09-26T09:49:44.488Z,3.60
2018-09-26T09:52:11.965Z,3.90
2018-09-26T09:54:39.421Z,3.20
2018-09-26T09:57:06.973Z,3.67
2018-09-26T09:59:34.527Z,3.43
2018-09-26T10:02:01.990Z,2.67
2018-09-26T10:04:29.447Z,2.77
2018-09-26T10:06:56.903Z,2.30
2018-09-26T10:09:24.347Z,2.33
2018-09-26T10:11:51.820Z,1.77
2018-09-26T10:14:19.306Z,2.13
2018-09-26T10:16:46.752Z,2.30
2018-09-26T10:19:14.212Z,3.37
2018-09-26T10:21:41.677Z,2.73
2018-09-26T10:24:09.147Z,2.07
2018-09-26T10:26:36.721Z,2.40
2018-09-26T10:29:04.182Z,2.03
2018-09-26T10:31:31.628Z,2.50
2018-09-26T10:33:59.312Z,2.03
2018-09-26T10:36:26.769Z,2.20
2018-09-26T10:38:54.225Z,2.20
2018-09-26T10:41:21.791Z,2.07
2018-09-26T10:43:49.244Z,1.93
2018-09-26T10:46:16.692Z,1.60
2018-09-26T10:48:44.380Z,2.10
2018-09-26T10:51:11.936Z,2.00
2018-09-26T10:53:39.407Z,1.57
2018-09-26T10:56:06.887Z,1.43
2018-09-26T10:58:34.448Z,1.80
2018-09-26T11:01:01.895Z,2.00
2018-09-26T11:03:29.562Z,1.80
2018-09-26T11:05:57.022Z,1.60
2018-09-26T11:08:24.512Z,1.90
2018-09-26T11:10:52.044Z,2.00
2018-09-26T11:13:19.516Z,2.10
2018-09-26T11:15:47.088Z,1.73
2018-09-26T11:18:14.545Z,1.87
2018-09-26T11:20:42.812Z,1.83
2018-09-26T11:23:10.282Z,2.00
2018-09-26T11:25:37.745Z,1.63
2018-09-26T11:28:05.208Z,1.57
2018-09-26T11:30:32.652Z,1.77
2018-09-26T11:33:00.115Z,1.90
2018-09-26T11:35:27.577Z,1.63
2018-09-26T11:37:55.027Z,1.77
2018-09-26T11:40:22.544Z,1.63
2018-09-26T11:42:49.953Z,1.50
2018-09-26T11:45:17.412Z,1.90
2018-09-26T11:47:44.859Z,1.50
2018-09-26T11:50:12.483Z,3.00
2018-09-26T11:52:39.932Z,1.63
2018-09-26T11:55:07.412Z,2.03
2018-09-26T11:57:34.862Z,2.10
2018-09-26T12:00:02.321Z,1.80
2018-09-26T12:02:29.878Z,2.27
2018-09-26T12:04:57.335Z,2.30
2018-09-26T12:07:24.865Z,1.87
2018-09-26T12:09:52.275Z,2.07
2018-09-26T12:12:19.752Z,1.60
2018-09-26T12:14:47.287Z,1.77
2018-09-26T12:17:14.858Z,2.20
2018-09-26T12:19:42.416Z,2.07
2018-09-26T12:22:09.945Z,1.63
2018-09-26T12:24:37.347Z,2.37
2018-09-26T12:27:04.794Z,1.73
2018-09-26T12:29:32.254Z,1.63
2018-09-26T12:31:59.725Z,1.90
2018-09-26T12:34:27.563Z,1.70
2018-09-26T12:36:55.791Z,1.73
2018-09-26T12:39:23.348Z,1.80
2018-09-26T12:41:50.815Z,1.80
2018-09-26T12:44:18.473Z,2.00
2018-09-26T12:46:45.931Z,1.73
2018-09-26T12:49:13.383Z,1.90
2018-09-26T12:51:40.869Z,1.70
2018-09-26T12:54:08.472Z,1.50
2018-09-26T12:56:35.885Z,1.80
2018-09-26T12:59:03.357Z,1.87
2018-09-26T13:01:30.914Z,1.53
2018-09-26T13:03:58.369Z,1.70
2018-09-26T13:06:25.837Z,2.13
2018-09-26T13:08:53.307Z,2.00
2018-09-26T13:11:22.270Z,1.70
2018-09-26T13:13:49.716Z,1.87
2018-09-26T13:16:17.452Z,1.60
2018-09-26T13:18:44.838Z,1.90
2018-09-26T13:21:12.343Z,1.87
2018-09-26T13:23:39.795Z,2.00
2018-09-26T13:26:07.285Z,2.00
2018-09-26T13:28:34.838Z,2.43
2018-09-26T13:31:02.425Z,1.80
2018-09-26T13:33:29.867Z,1.77
2018-09-26T13:35:58.679Z,1.77
2018-09-26T13:38:27.487Z,1.50
2018-09-26T13:40:56.362Z,1.60
2018-09-26T13:43:25.280Z,1.57
2018-09-26T13:45:53.662Z,1.77
2018-09-26T13:48:21.826Z,1.70
2018-09-26T13:50:49.267Z,1.87
2018-09-26T13:53:16.724Z,1.70
2018-09-26T13:55:44.178Z,1.50
2018-09-26T13:58:11.665Z,2.07
2018-09-26T14:00:39.090Z,1.70
2018-09-26T14:03:06.771Z,1.63
2018-09-26T14:05:34.216Z,1.87
2018-09-26T14:08:01.668Z,1.83
2018-09-26T14:10:29.161Z,1.73
2018-09-26T14:12:56.716Z,1.93
2018-09-26T14:15:24.171Z,1.77
2018-09-26T14:17:51.625Z,1.50
2018-09-26T14:20:19.101Z,1.60
2018-09-26T14:22:46.624Z,1.60
2018-09-26T14:25:14.027Z,1.60
2018-09-26T14:27:41.596Z,1.90
2018-09-26T14:30:09.197Z,2.00
2018-09-26T14:32:36.724Z,1.67
2018-09-26T14:35:05.349Z,1.60
2018-09-26T14:37:32.775Z,1.80
2018-09-26T14:40:00.286Z,2.10
2018-09-26T14:42:27.795Z,1.93
2018-09-26T14:44:55.259Z,2.10
2018-09-26T14:47:22.922Z,1.67
2018-09-26T14:49:50.289Z,1.70
2018-09-26T14:52:17.731Z,2.20
2018-09-26T14:54:45.191Z,1.77
2018-09-26T14:57:12.676Z,1.93
2018-09-26T14:59:41.259Z,1.70
2018-09-26T15:02:08.752Z,1.83
2018-09-26T15:04:36.397Z,1.60
2018-09-26T15:07:03.856Z,1.60
2018-09-26T15:09:31.414Z,1.87
2018-09-26T15:11:58.900Z,1.37
2018-09-26T15:14:26.518Z,1.73
2018-09-26T15:16:54.014Z,1.77
2018-09-26T15:19:21.571Z,1.73
2018-09-26T15:21:49.024Z,1.53
2018-09-26T15:24:16.555Z,1.90
2018-09-26T15:26:45.497Z,1.50
2018-09-26T15:29:13.369Z,1.60
2018-09-26T15:31:40.829Z,1.90
2018-09-26T15:34:08.439Z,1.73
2018-09-26T15:36:35.864Z,1.60
2018-09-26T15:39:03.315Z,1.57
2018-09-26T15:41:30.837Z,1.60
2018-09-26T15:43:58.442Z,1.60
2018-09-26T15:46:26.008Z,1.50
2018-09-26T15:48:53.343Z,1.60
2018-09-26T15:51:20.919Z,1.60
2018-09-26T15:53:48.403Z,1.80
2018-09-26T15:56:15.903Z,1.37
2018-09-26T15:58:43.523Z,1.77
2018-09-26T16:01:11.099Z,1.57
2018-09-26T16:03:38.652Z,1.60
2018-09-26T16:06:06.178Z,2.13
2018-09-26T16:08:34.400Z,1.47
2018-09-26T16:11:01.957Z,1.80
2018-09-26T16:13:29.409Z,2.00
2018-09-26T16:15:56.891Z,1.70
2018-09-26T16:18:24.542Z,1.70
2018-09-26T16:20:52.008Z,2.20
2018-09-26T16:23:19.471Z,1.57
2018-09-26T16:25:46.986Z,1.60
2018-09-26T16:28:14.467Z,1.70
2018-09-26T16:30:41.860Z,1.77
2018-09-26T16:33:09.323Z,1.60
2018-09-26T16:35:36.787Z,1.80
2018-09-26T16:38:04.384Z,1.50
2018-09-26T16:40:31.810Z,1.70
2018-09-26T16:42:59.265Z,1.70
2018-09-26T16:45:26.740Z,1.80
2018-09-26T16:47:55.350Z,1.77
2018-09-26T16:50:22.884Z,1.47
2018-09-26T16:52:50.360Z,1.60
2018-09-26T16:55:17.876Z,1.63
2018-09-26T16:57:45.377Z,1.40
2018-09-26T17:00:13.179Z,1.60
2018-09-26T17:02:41.732Z,1.47
2018-09-26T17:05:09.307Z,1.67
2018-09-26T17:07:36.859Z,1.40
2018-09-26T17:10:04.361Z,1.17
2018-09-26T17:12:31.888Z,1.60
2018-09-26T17:14:59.443Z,1.40
2018-09-26T17:17:26.921Z,1.70
2018-09-26T17:19:54.505Z,1.70
2018-09-26T17:22:22.835Z,1.40
2018-09-26T17:24:50.319Z,1.23
2018-09-26T17:27:18.920Z,1.50
2018-09-26T17:29:46.371Z,1.33
2018-09-26T17:32:13.896Z,1.20
2018-09-26T17:34:41.438Z,1.53
2018-09-26T17:37:09.643Z,0.90
2018-09-26T17:39:37.093Z,1.50
2018-09-26T17:42:04.564Z,1.40
2018-09-26T17:44:32.272Z,1.20
2018-09-26T17:46:59.738Z,1.70
2018-09-26T17:49:27.292Z,1.10
2018-09-26T17:51:54.748Z,1.27
2018-09-26T17:54:22.436Z,1.40
2018-09-26T17:56:49.898Z,1.67
2018-09-26T17:59:17.349Z,1.30
2018-09-26T18:01:44.803Z,1.30
2018-09-26T18:04:12.392Z,0.90
2018-09-26T18:06:39.838Z,1.60
2018-09-26T18:09:07.414Z,1.50
2018-09-26T18:11:34.970Z,1.63
2018-09-26T18:14:02.629Z,1.50
2018-09-26T18:16:30.087Z,1.50
2018-09-26T18:18:57.657Z,1.40
2018-09-26T18:21:25.172Z,1.63
2018-09-26T18:23:52.692Z,1.57
2018-09-26T18:26:20.299Z,1.30
2018-09-26T18:28:47.778Z,1.97
2018-09-26T18:31:15.242Z,1.60
2018-09-26T18:33:42.755Z,1.40
2018-09-26T18:36:10.213Z,1.53
2018-09-26T18:38:37.807Z,1.40
2018-09-26T18:41:06.102Z,1.90
2018-09-26T18:43:33.623Z,1.83
2018-09-26T18:46:01.132Z,1.50
2018-09-26T18:48:28.625Z,1.70
2018-09-26T18:50:56.113Z,1.23
2018-09-26T18:53:23.596Z,1.93
2018-09-26T18:55:51.017Z,1.60
2018-09-26T18:58:18.688Z,1.80
2018-09-26T19:00:46.136Z,1.60
2018-09-26T19:03:13.590Z,1.40
2018-09-26T19:05:41.057Z,1.50
2018-09-26T19:08:08.515Z,1.50
2018-09-26T19:10:35.979Z,1.57
2018-09-26T19:13:03.424Z,1.47
2018-09-26T19:15:31.144Z,1.70
2018-09-26T19:17:58.665Z,1.50
2018-09-26T19:20:26.130Z,1.57
2018-09-26T19:22:53.585Z,1.60
2018-09-26T19:25:21.035Z,1.70
2018-09-26T19:27:48.487Z,1.60
2018-09-26T19:30:16.014Z,1.63
2018-09-26T19:32:43.523Z,1.70
2018-09-26T19:35:10.971Z,1.53
2018-09-26T19:37:39.472Z,1.80
2018-09-26T19:40:07.182Z,1.77
2018-09-26T19:42:34.754Z,1.47
2018-09-26T19:45:02.241Z,1.57
2018-09-26T19:47:29.771Z,1.60
2018-09-26T19:49:57.247Z,1.60
2018-09-26T19:52:24.806Z,1.43
2018-09-26T19:54:52.457Z,2.00
2018-09-26T19:57:19.907Z,1.57
2018-09-26T19:59:47.390Z,1.80
2018-09-26T20:02:15.063Z,1.67
2018-09-26T20:04:42.523Z,1.80
2018-09-26T20:07:09.974Z,2.20
2018-09-26T20:09:37.455Z,1.87
2018-09-26T20:12:04.975Z,2.17
2018-09-26T20:14:32.463Z,1.60
2018-09-26T20:17:00.028Z,1.50
2018-09-26T20:19:27.493Z,1.70
2018-09-26T20:21:54.953Z,1.83
2018-09-26T20:24:22.632Z,1.60
2018-09-26T20:26:50.177Z,2.07
2018-09-26T20:29:17.582Z,1.77
2018-09-26T20:31:45.105Z,1.30
2018-09-26T20:34:12.552Z,1.90
2018-09-26T20:36:40.850Z,1.20
2018-09-26T20:39:08.415Z,1.60
2018-09-26T20:41:36.092Z,1.43
2018-09-26T20:44:03.552Z,1.50
2018-09-26T20:46:31.005Z,1.57
2018-09-26T20:48:58.463Z,1.67
2018-09-26T20:51:25.927Z,1.63
2018-09-26T20:53:53.378Z,1.60
2018-09-26T20:56:20.858Z,2.00
2018-09-26T20:58:48.299Z,1.90
2018-09-26T21:01:15.752Z,2.27
2018-09-26T21:03:43.243Z,2.03
2018-09-26T21:06:10.834Z,1.63
2018-09-26T21:08:38.272Z,1.90
2018-09-26T21:11:05.942Z,1.57
2018-09-26T21:13:34.216Z,1.90
2018-09-26T21:16:01.640Z,2.23
2018-09-26T21:18:29.100Z,2.00
2018-09-26T21:20:56.613Z,2.00
2018-09-26T21:23:24.064Z,1.70
2018-09-26T21:25:51.521Z,2.07
2018-09-26T21:28:18.988Z,2.00
2018-09-26T21:30:46.657Z,2.60
2018-09-26T21:33:14.231Z,2.80
2018-09-26T21:35:41.689Z,2.70
2018-09-26T21:38:09.354Z,2.70
2018-09-26T21:40:36.799Z,2.30
2018-09-26T21:43:04.275Z,2.10
2018-09-26T21:45:31.936Z,2.10
2018-09-26T21:47:59.392Z,1.60
2018-09-26T21:50:26.852Z,2.03
2018-09-26T21:52:54.428Z,2.67
2018-09-26T21:55:21.982Z,2.30
2018-09-26T21:57:49.653Z,2.17
2018-09-26T22:00:17.214Z,2.73
2018-09-26T22:02:44.677Z,2.43
2018-09-26T22:05:12.167Z,2.40
2018-09-26T22:07:39.623Z,2.33
2018-09-26T22:10:07.167Z,2.50
2018-09-26T22:12:34.624Z,2.40
2018-09-26T22:15:02.088Z,2.90
2018-09-26T22:17:29.708Z,3.07
2018-09-26T22:19:57.160Z,2.80
2018-09-26T22:22:25.377Z,3.10
2018-09-26T22:24:52.833Z,2.83
2018-09-26T22:27:20.332Z,2.57
2018-09-26T22:29:47.795Z,2.70
2018-09-26T22:32:15.554Z,3.30
2018-09-26T22:34:43.004Z,2.87
2018-09-26T22:37:10.481Z,3.17
2018-09-26T22:39:37.953Z,2.73
2018-09-26T22:42:05.402Z,2.50
2018-09-26T22:44:32.968Z,2.50
2018-09-26T22:47:00.433Z,2.83
2018-09-26T22:49:27.887Z,1.97
2018-09-26T22:51:55.620Z,3.17
2018-09-26T22:54:23.055Z,3.03
2018-09-26T22:56:51.304Z,3.20
2018-09-26T22:59:18.760Z,3.43
2018-09-26T23:01:46.327Z,3.00
2018-09-26T23:04:13.887Z,2.70
2018-09-26T23:06:41.452Z,2.60
2018-09-26T23:09:08.902Z,2.90
2018-09-26T23:11:36.383Z,2.80
2018-09-26T23:14:03.850Z,2.50
2018-09-26T23:16:31.303Z,2.20
2018-09-26T23:18:58.751Z,2.73
2018-09-26T23:21:26.227Z,2.80
2018-09-26T23:23:53.789Z,2.60
2018-09-26T23:26:21.357Z,2.90
2018-09-26T23:28:48.810Z,2.37
2018-09-26T23:31:16.383Z,2.70
2018-09-26T23:33:43.840Z,3.23
2018-09-26T23:36:11.302Z,2.50
2018-09-26T23:38:38.971Z,2.33
2018-09-26T23:41:06.555Z,2.70
2018-09-26T23:43:34.105Z,2.40
2018-09-26T23:46:01.565Z,2.70
2018-09-26T23:48:29.022Z,3.03
2018-09-26T23:50:56.472Z,3.03
2018-09-26T23:53:23.943Z,2.73
2018-09-26T23:55:51.516Z,2.67
2018-09-26T23:58:18.972Z,2.30
